sensor_id;sensor_type;location;lat;lon;timestamp;temperature;humidity
19261;DHT22;9764;48.114;11.670;2022-09-02T00:01:30;23.60;94.60
19261;DHT22;9764;48.114;11.670;2022-09-02T00:04:03;23.70;94.60
19261;DHT22;9764;48.114;11.670;2022-09-02T00:06:33;23.60;94.60
19261;DHT22;9764;48.114;11.670;2022-09-02T00:09:03;23.60;94.50
19261;DHT22;9764;48.114;11.670;2022-09-02T00:11:35;23.60;94.50
19261;DHT22;9764;48.114;11.670;2022-09-02T00:14:07;23.60;94.50
19261;DHT22;9764;48.114;11.670;2022-09-02T00:16:37;23.60;94.50
19261;DHT22;9764;48.114;11.670;2022-09-02T00:19:08;23.60;94.50
19261;DHT22;9764;48.114;11.670;2022-09-02T00:21:37;23.60;94.50
19261;DHT22;9764;48.114;11.670;2022-09-02T00:24:05;23.60;94.40
19261;DHT22;9764;48.114;11.670;2022-09-02T00:26:35;23.60;94.40
19261;DHT22;9764;48.114;11.670;2022-09-02T00:29:04;23.60;94.40
19261;DHT22;9764;48.114;11.670;2022-09-02T00:31:34;23.60;94.40
19261;DHT22;9764;48.114;11.670;2022-09-02T00:34:04;23.60;94.40
19261;DHT22;9764;48.114;11.670;2022-09-02T00:36:33;23.60;94.30
19261;DHT22;9764;48.114;11.670;2022-09-02T00:39:02;23.60;94.70
19261;DHT22;9764;48.114;11.670;2022-09-02T00:41:30;23.60;94.20
19261;DHT22;9764;48.114;11.670;2022-09-02T00:44:03;23.60;94.20
19261;DHT22;9764;48.114;11.670;2022-09-02T00:46:33;23.50;94.20
19261;DHT22;9764;48.114;11.670;2022-09-02T00:49:06;23.50;94.40
19261;DHT22;9764;48.114;11.670;2022-09-02T00:51:39;23.50;94.20
19261;DHT22;9764;48.114;11.670;2022-09-02T00:54:10;23.50;94.10
19261;DHT22;9764;48.114;11.670;2022-09-02T00:56:41;23.50;94.10
19261;DHT22;9764;48.114;11.670;2022-09-02T00:59:17;23.50;94.10
19261;DHT22;9764;48.114;11.670;2022-09-02T01:01:47;23.50;94.00
19261;DHT22;9764;48.114;11.670;2022-09-02T01:04:16;23.50;94.00
19261;DHT22;9764;48.114;11.670;2022-09-02T01:06:45;23.50;94.00
19261;DHT22;9764;48.114;11.670;2022-09-02T01:09:14;23.50;94.00
19261;DHT22;9764;48.114;11.670;2022-09-02T01:11:46;23.50;94.00
19261;DHT22;9764;48.114;11.670;2022-09-02T01:14:16;23.50;93.90
19261;DHT22;9764;48.114;11.670;2022-09-02T01:16:48;23.50;93.90
19261;DHT22;9764;48.114;11.670;2022-09-02T01:19:21;23.50;93.90
19261;DHT22;9764;48.114;11.670;2022-09-02T01:21:53;23.50;93.90
19261;DHT22;9764;48.114;11.670;2022-09-02T01:24:24;23.50;93.80
19261;DHT22;9764;48.114;11.670;2022-09-02T01:26:55;23.50;93.80
19261;DHT22;9764;48.114;11.670;2022-09-02T01:29:25;23.50;93.80
19261;DHT22;9764;48.114;11.670;2022-09-02T01:31:54;23.50;93.80
19261;DHT22;9764;48.114;11.670;2022-09-02T01:34:23;23.50;93.80
19261;DHT22;9764;48.114;11.670;2022-09-02T01:36:53;23.50;93.70
19261;DHT22;9764;48.114;11.670;2022-09-02T01:39:21;23.50;93.70
19261;DHT22;9764;48.114;11.670;2022-09-02T01:41:51;23.50;93.70
19261;DHT22;9764;48.114;11.670;2022-09-02T01:44:19;23.50;93.70
19261;DHT22;9764;48.114;11.670;2022-09-02T01:46:49;23.40;93.60
19261;DHT22;9764;48.114;11.670;2022-09-02T01:49:17;23.40;93.60
19261;DHT22;9764;48.114;11.670;2022-09-02T01:51:46;23.40;93.60
19261;DHT22;9764;48.114;11.670;2022-09-02T01:54:17;23.40;93.60
19261;DHT22;9764;48.114;11.670;2022-09-02T01:56:45;23.40;93.60
19261;DHT22;9764;48.114;11.670;2022-09-02T01:59:13;23.40;93.50
19261;DHT22;9764;48.114;11.670;2022-09-02T02:01:44;23.40;93.50
19261;DHT22;9764;48.114;11.670;2022-09-02T02:04:14;23.40;93.50
19261;DHT22;9764;48.114;11.670;2022-09-02T02:06:45;23.40;93.50
19261;DHT22;9764;48.114;11.670;2022-09-02T02:09:20;23.40;93.50
19261;DHT22;9764;48.114;11.670;2022-09-02T02:11:51;23.40;93.50
19261;DHT22;9764;48.114;11.670;2022-09-02T02:14:21;23.40;93.50
19261;DHT22;9764;48.114;11.670;2022-09-02T02:16:49;23.40;93.50
19261;DHT22;9764;48.114;11.670;2022-09-02T02:19:18;23.40;93.40
19261;DHT22;9764;48.114;11.670;2022-09-02T02:21:47;23.40;93.40
19261;DHT22;9764;48.114;11.670;2022-09-02T02:24:16;23.40;93.30
19261;DHT22;9764;48.114;11.670;2022-09-02T02:26:46;23.40;93.30
19261;DHT22;9764;48.114;11.670;2022-09-02T02:29:16;23.40;93.30
19261;DHT22;9764;48.114;11.670;2022-09-02T02:31:46;23.40;93.30
19261;DHT22;9764;48.114;11.670;2022-09-02T02:34:14;23.40;93.30
19261;DHT22;9764;48.114;11.670;2022-09-02T02:36:43;23.40;93.30
19261;DHT22;9764;48.114;11.670;2022-09-02T02:39:12;23.30;93.20
19261;DHT22;9764;48.114;11.670;2022-09-02T02:41:42;23.40;93.20
19261;DHT22;9764;48.114;11.670;2022-09-02T02:44:13;23.40;93.20
19261;DHT22;9764;48.114;11.670;2022-09-02T02:46:42;23.40;93.20
19261;DHT22;9764;48.114;11.670;2022-09-02T02:49:11;23.30;93.10
19261;DHT22;9764;48.114;11.670;2022-09-02T02:51:40;23.30;93.10
19261;DHT22;9764;48.114;11.670;2022-09-02T02:54:09;23.30;93.10
19261;DHT22;9764;48.114;11.670;2022-09-02T02:56:40;23.30;93.00
19261;DHT22;9764;48.114;11.670;2022-09-02T02:59:08;23.30;92.90
19261;DHT22;9764;48.114;11.670;2022-09-02T03:01:38;23.30;93.30
19261;DHT22;9764;48.114;11.670;2022-09-02T03:04:07;23.30;92.90
19261;DHT22;9764;48.114;11.670;2022-09-02T03:06:36;23.30;92.90
19261;DHT22;9764;48.114;11.670;2022-09-02T03:09:04;23.30;92.90
19261;DHT22;9764;48.114;11.670;2022-09-02T03:11:35;23.30;92.90
19261;DHT22;9764;48.114;11.670;2022-09-02T03:14:05;23.30;92.90
19261;DHT22;9764;48.114;11.670;2022-09-02T03:16:35;23.30;92.80
19261;DHT22;9764;48.114;11.670;2022-09-02T03:19:05;23.30;92.80
19261;DHT22;9764;48.114;11.670;2022-09-02T03:21:33;23.30;92.80
19261;DHT22;9764;48.114;11.670;2022-09-02T03:24:06;23.30;93.10
19261;DHT22;9764;48.114;11.670;2022-09-02T03:26:34;23.30;92.70
19261;DHT22;9764;48.114;11.670;2022-09-02T03:29:03;23.20;92.70
19261;DHT22;9764;48.114;11.670;2022-09-02T03:31:33;23.20;92.70
19261;DHT22;9764;48.114;11.670;2022-09-02T03:34:01;23.20;92.70
19261;DHT22;9764;48.114;11.670;2022-09-02T03:36:35;23.20;92.70
19261;DHT22;9764;48.114;11.670;2022-09-02T03:39:09;23.20;92.70
19261;DHT22;9764;48.114;11.670;2022-09-02T03:41:40;23.20;92.60
19261;DHT22;9764;48.114;11.670;2022-09-02T03:44:10;23.20;92.70
19261;DHT22;9764;48.114;11.670;2022-09-02T03:46:40;23.20;92.60
19261;DHT22;9764;48.114;11.670;2022-09-02T03:49:09;23.20;92.60
19261;DHT22;9764;48.114;11.670;2022-09-02T03:51:41;23.20;92.50
19261;DHT22;9764;48.114;11.670;2022-09-02T03:54:10;23.20;92.60
19261;DHT22;9764;48.114;11.670;2022-09-02T03:56:40;23.20;92.60
19261;DHT22;9764;48.114;11.670;2022-09-02T03:59:09;23.20;92.60
19261;DHT22;9764;48.114;11.670;2022-09-02T04:01:38;23.20;92.50
19261;DHT22;9764;48.114;11.670;2022-09-02T04:04:06;23.20;92.50
19261;DHT22;9764;48.114;11.670;2022-09-02T04:06:37;23.20;92.50
19261;DHT22;9764;48.114;11.670;2022-09-02T04:09:06;23.20;92.40
19261;DHT22;9764;48.114;11.670;2022-09-02T04:11:38;23.20;92.40
19261;DHT22;9764;48.114;11.670;2022-09-02T04:14:09;23.10;92.30
19261;DHT22;9764;48.114;11.670;2022-09-02T04:16:38;22.90;92.10
19261;DHT22;9764;48.114;11.670;2022-09-02T04:19:08;22.60;92.40
19261;DHT22;9764;48.114;11.670;2022-09-02T04:21:39;22.30;93.30
19261;DHT22;9764;48.114;11.670;2022-09-02T04:24:10;22.20;93.00
19261;DHT22;9764;48.114;11.670;2022-09-02T04:26:42;22.10;92.80
19261;DHT22;9764;48.114;11.670;2022-09-02T04:29:14;21.80;93.20
19261;DHT22;9764;48.114;11.670;2022-09-02T04:31:47;21.70;93.00
19261;DHT22;9764;48.114;11.670;2022-09-02T04:34:15;21.20;93.80
19261;DHT22;9764;48.114;11.670;2022-09-02T04:36:44;21.10;94.10
19261;DHT22;9764;48.114;11.670;2022-09-02T04:39:14;21.20;94.00
19261;DHT22;9764;48.114;11.670;2022-09-02T04:41:43;21.40;93.90
19261;DHT22;9764;48.114;11.670;2022-09-02T04:44:13;21.10;93.90
19261;DHT22;9764;48.114;11.670;2022-09-02T04:46:45;21.10;94.00
19261;DHT22;9764;48.114;11.670;2022-09-02T04:49:18;21.00;94.00
19261;DHT22;9764;48.114;11.670;2022-09-02T04:51:50;21.00;94.20
19261;DHT22;9764;48.114;11.670;2022-09-02T04:54:23;21.20;94.10
19261;DHT22;9764;48.114;11.670;2022-09-02T04:56:54;21.10;93.80
19261;DHT22;9764;48.114;11.670;2022-09-02T04:59:24;20.70;94.20
19261;DHT22;9764;48.114;11.670;2022-09-02T05:02:01;20.90;94.70
19261;DHT22;9764;48.114;11.670;2022-09-02T05:04:31;21.10;94.10
19261;DHT22;9764;48.114;11.670;2022-09-02T05:07:01;21.00;94.10
19261;DHT22;9764;48.114;11.670;2022-09-02T05:09:34;20.80;94.30
19261;DHT22;9764;48.114;11.670;2022-09-02T05:12:05;20.90;94.20
19261;DHT22;9764;48.114;11.670;2022-09-02T05:14:45;21.10;93.90
19261;DHT22;9764;48.114;11.670;2022-09-02T05:17:17;21.10;93.80
19261;DHT22;9764;48.114;11.670;2022-09-02T05:19:47;21.10;93.80
19261;DHT22;9764;48.114;11.670;2022-09-02T05:22:17;21.10;93.70
19261;DHT22;9764;48.114;11.670;2022-09-02T05:24:47;21.20;93.70
19261;DHT22;9764;48.114;11.670;2022-09-02T05:27:40;21.10;93.60
19261;DHT22;9764;48.114;11.670;2022-09-02T05:31:02;20.80;94.10
19261;DHT22;9764;48.114;11.670;2022-09-02T05:34:21;20.90;94.00
19261;DHT22;9764;48.114;11.670;2022-09-02T05:36:52;20.70;94.30
19261;DHT22;9764;48.114;11.670;2022-09-02T05:39:21;20.90;94.20
19261;DHT22;9764;48.114;11.670;2022-09-02T05:41:50;20.80;94.10
19261;DHT22;9764;48.114;11.670;2022-09-02T05:44:19;20.90;94.20
19261;DHT22;9764;48.114;11.670;2022-09-02T05:46:48;21.00;94.20
19261;DHT22;9764;48.114;11.670;2022-09-02T05:49:17;20.90;94.10
19261;DHT22;9764;48.114;11.670;2022-09-02T05:51:59;20.80;94.30
19261;DHT22;9764;48.114;11.670;2022-09-02T05:54:34;20.80;94.50
19261;DHT22;9764;48.114;11.670;2022-09-02T05:57:10;20.80;94.60
19261;DHT22;9764;48.114;11.670;2022-09-02T05:59:44;20.90;94.40
19261;DHT22;9764;48.114;11.670;2022-09-02T06:02:17;21.10;94.30
19261;DHT22;9764;48.114;11.670;2022-09-02T06:04:48;21.10;94.20
19261;DHT22;9764;48.114;11.670;2022-09-02T06:07:20;20.90;94.50
19261;DHT22;9764;48.114;11.670;2022-09-02T06:09:53;20.80;94.80
19261;DHT22;9764;48.114;11.670;2022-09-02T06:12:25;20.80;95.20
19261;DHT22;9764;48.114;11.670;2022-09-02T06:14:58;21.00;94.70
19261;DHT22;9764;48.114;11.670;2022-09-02T06:17:26;20.80;95.00
19261;DHT22;9764;48.114;11.670;2022-09-02T06:19:55;20.90;95.00
19261;DHT22;9764;48.114;11.670;2022-09-02T06:22:26;21.00;94.90
19261;DHT22;9764;48.114;11.670;2022-09-02T06:24:55;21.10;94.90
19261;DHT22;9764;48.114;11.670;2022-09-02T06:27:30;21.20;95.00
19261;DHT22;9764;48.114;11.670;2022-09-02T06:30:00;21.20;95.00
19261;DHT22;9764;48.114;11.670;2022-09-02T06:32:29;21.20;95.10
19261;DHT22;9764;48.114;11.670;2022-09-02T06:35:02;21.20;95.20
19261;DHT22;9764;48.114;11.670;2022-09-02T06:37:34;21.20;95.30
19261;DHT22;9764;48.114;11.670;2022-09-02T06:40:03;21.30;95.30
19261;DHT22;9764;48.114;11.670;2022-09-02T06:42:34;21.20;95.70
19261;DHT22;9764;48.114;11.670;2022-09-02T06:45:19;21.00;95.60
19261;DHT22;9764;48.114;11.670;2022-09-02T06:47:51;20.80;95.90
19261;DHT22;9764;48.114;11.670;2022-09-02T06:50:19;20.60;96.00
19261;DHT22;9764;48.114;11.670;2022-09-02T06:52:48;20.70;96.20
19261;DHT22;9764;48.114;11.670;2022-09-02T06:55:17;20.90;96.20
19261;DHT22;9764;48.114;11.670;2022-09-02T06:57:48;21.10;96.00
19261;DHT22;9764;48.114;11.670;2022-09-02T07:00:17;21.30;95.70
19261;DHT22;9764;48.114;11.670;2022-09-02T07:02:46;21.40;95.80
19261;DHT22;9764;48.114;11.670;2022-09-02T07:05:36;21.40;95.30
19261;DHT22;9764;48.114;11.670;2022-09-02T07:08:04;21.50;95.30
19261;DHT22;9764;48.114;11.670;2022-09-02T07:10:36;21.60;95.30
19261;DHT22;9764;48.114;11.670;2022-09-02T07:13:09;21.70;95.30
19261;DHT22;9764;48.114;11.670;2022-09-02T07:15:40;21.80;95.20
19261;DHT22;9764;48.114;11.670;2022-09-02T07:18:09;21.80;95.00
19261;DHT22;9764;48.114;11.670;2022-09-02T07:20:38;21.90;94.90
19261;DHT22;9764;48.114;11.670;2022-09-02T07:23:06;21.90;94.80
19261;DHT22;9764;48.114;11.670;2022-09-02T07:25:37;21.90;94.70
19261;DHT22;9764;48.114;11.670;2022-09-02T07:28:10;21.90;94.70
19261;DHT22;9764;48.114;11.670;2022-09-02T07:30:41;21.90;94.70
19261;DHT22;9764;48.114;11.670;2022-09-02T07:33:14;22.00;94.80
19261;DHT22;9764;48.114;11.670;2022-09-02T07:35:45;22.10;94.70
19261;DHT22;9764;48.114;11.670;2022-09-02T07:38:16;22.10;94.60
19261;DHT22;9764;48.114;11.670;2022-09-02T07:40:45;22.10;94.50
19261;DHT22;9764;48.114;11.670;2022-09-02T07:43:16;22.20;94.70
19261;DHT22;9764;48.114;11.670;2022-09-02T07:45:45;22.20;94.60
19261;DHT22;9764;48.114;11.670;2022-09-02T07:48:14;22.20;94.40
19261;DHT22;9764;48.114;11.670;2022-09-02T07:50:44;22.20;94.60
19261;DHT22;9764;48.114;11.670;2022-09-02T07:53:17;22.30;94.30
19261;DHT22;9764;48.114;11.670;2022-09-02T07:55:46;22.30;94.70
19261;DHT22;9764;48.114;11.670;2022-09-02T07:58:17;22.30;94.40
19261;DHT22;9764;48.114;11.670;2022-09-02T08:00:49;22.30;94.30
19261;DHT22;9764;48.114;11.670;2022-09-02T08:03:18;22.30;94.60
19261;DHT22;9764;48.114;11.670;2022-09-02T08:05:52;22.40;94.30
19261;DHT22;9764;48.114;11.670;2022-09-02T08:08:21;22.50;94.30
19261;DHT22;9764;48.114;11.670;2022-09-02T08:10:52;22.50;94.30
19261;DHT22;9764;48.114;11.670;2022-09-02T08:13:22;22.50;94.20
19261;DHT22;9764;48.114;11.670;2022-09-02T08:15:53;22.50;94.30
19261;DHT22;9764;48.114;11.670;2022-09-02T08:18:22;22.50;94.20
19261;DHT22;9764;48.114;11.670;2022-09-02T08:20:52;22.50;94.30
19261;DHT22;9764;48.114;11.670;2022-09-02T08:23:21;22.60;94.40
19261;DHT22;9764;48.114;11.670;2022-09-02T08:26:04;22.60;94.40
19261;DHT22;9764;48.114;11.670;2022-09-02T08:28:34;22.60;94.30
19261;DHT22;9764;48.114;11.670;2022-09-02T08:31:06;22.60;94.20
19261;DHT22;9764;48.114;11.670;2022-09-02T08:33:35;22.50;94.50
19261;DHT22;9764;48.114;11.670;2022-09-02T08:36:07;22.40;94.60
19261;DHT22;9764;48.114;11.670;2022-09-02T08:38:38;22.40;94.70
19261;DHT22;9764;48.114;11.670;2022-09-02T08:41:12;22.40;94.70
19261;DHT22;9764;48.114;11.670;2022-09-02T08:43:43;22.40;94.80
19261;DHT22;9764;48.114;11.670;2022-09-02T08:46:13;22.40;94.90
19261;DHT22;9764;48.114;11.670;2022-09-02T08:48:47;22.40;95.00
19261;DHT22;9764;48.114;11.670;2022-09-02T08:51:23;22.30;95.00
19261;DHT22;9764;48.114;11.670;2022-09-02T08:54:05;22.30;94.90
19261;DHT22;9764;48.114;11.670;2022-09-02T08:56:35;22.40;95.00
19261;DHT22;9764;48.114;11.670;2022-09-02T08:59:05;22.40;95.00
19261;DHT22;9764;48.114;11.670;2022-09-02T09:01:43;22.40;95.20
19261;DHT22;9764;48.114;11.670;2022-09-02T09:04:25;22.50;95.00
19261;DHT22;9764;48.114;11.670;2022-09-02T09:07:16;22.50;94.90
19261;DHT22;9764;48.114;11.670;2022-09-02T09:09:54;22.50;94.90
19261;DHT22;9764;48.114;11.670;2022-09-02T09:12:36;22.60;94.90
19261;DHT22;9764;48.114;11.670;2022-09-02T09:15:10;22.60;94.80
19261;DHT22;9764;48.114;11.670;2022-09-02T09:17:44;22.60;94.60
19261;DHT22;9764;48.114;11.670;2022-09-02T09:20:16;22.60;94.50
19261;DHT22;9764;48.114;11.670;2022-09-02T09:22:48;22.60;94.40
19261;DHT22;9764;48.114;11.670;2022-09-02T09:25:18;22.70;94.10
19261;DHT22;9764;48.114;11.670;2022-09-02T09:27:46;22.70;94.10
19261;DHT22;9764;48.114;11.670;2022-09-02T09:30:16;22.70;93.80
19261;DHT22;9764;48.114;11.670;2022-09-02T09:32:46;22.70;93.90
19261;DHT22;9764;48.114;11.670;2022-09-02T09:35:17;22.70;93.70
19261;DHT22;9764;48.114;11.670;2022-09-02T09:37:47;22.70;94.00
19261;DHT22;9764;48.114;11.670;2022-09-02T09:40:30;22.70;93.60
19261;DHT22;9764;48.114;11.670;2022-09-02T09:43:11;22.70;93.60
19261;DHT22;9764;48.114;11.670;2022-09-02T09:45:51;22.70;93.40
19261;DHT22;9764;48.114;11.670;2022-09-02T09:48:22;22.70;93.30
19261;DHT22;9764;48.114;11.670;2022-09-02T09:51:12;22.70;93.40
19261;DHT22;9764;48.114;11.670;2022-09-02T09:53:40;22.80;93.40
19261;DHT22;9764;48.114;11.670;2022-09-02T09:56:39;22.70;93.20
19261;DHT22;9764;48.114;11.670;2022-09-02T09:59:36;22.80;93.30
19261;DHT22;9764;48.114;11.670;2022-09-02T10:02:18;22.80;93.50
19261;DHT22;9764;48.114;11.670;2022-09-02T10:04:47;22.80;93.50
19261;DHT22;9764;48.114;11.670;2022-09-02T10:07:34;22.90;93.70
19261;DHT22;9764;48.114;11.670;2022-09-02T10:10:14;22.90;93.50
19261;DHT22;9764;48.114;11.670;2022-09-02T10:12:44;22.90;93.40
19261;DHT22;9764;48.114;11.670;2022-09-02T10:15:12;22.90;93.10
19261;DHT22;9764;48.114;11.670;2022-09-02T10:17:49;22.90;92.90
19261;DHT22;9764;48.114;11.670;2022-09-02T10:20:29;22.90;93.00
19261;DHT22;9764;48.114;11.670;2022-09-02T10:23:16;22.90;92.90
19261;DHT22;9764;48.114;11.670;2022-09-02T10:25:57;22.90;93.00
19261;DHT22;9764;48.114;11.670;2022-09-02T10:28:41;22.90;92.90
19261;DHT22;9764;48.114;11.670;2022-09-02T10:31:17;22.90;92.70
19261;DHT22;9764;48.114;11.670;2022-09-02T10:34:01;22.90;92.80
19261;DHT22;9764;48.114;11.670;2022-09-02T10:36:34;22.90;92.80
19261;DHT22;9764;48.114;11.670;2022-09-02T10:39:14;23.00;92.90
19261;DHT22;9764;48.114;11.670;2022-09-02T10:41:46;23.00;93.00
19261;DHT22;9764;48.114;11.670;2022-09-02T10:44:29;23.00;92.90
19261;DHT22;9764;48.114;11.670;2022-09-02T10:47:02;23.00;92.90
19261;DHT22;9764;48.114;11.670;2022-09-02T10:49:55;23.00;92.60
19261;DHT22;9764;48.114;11.670;2022-09-02T10:52:40;23.00;92.70
19261;DHT22;9764;48.114;11.670;2022-09-02T10:55:16;22.90;92.70
19261;DHT22;9764;48.114;11.670;2022-09-02T10:57:49;23.00;92.80
19261;DHT22;9764;48.114;11.670;2022-09-02T11:00:21;23.00;92.70
19261;DHT22;9764;48.114;11.670;2022-09-02T11:02:53;23.00;92.80
19261;DHT22;9764;48.114;11.670;2022-09-02T11:05:27;23.00;92.90
19261;DHT22;9764;48.114;11.670;2022-09-02T11:08:01;23.00;92.90
19261;DHT22;9764;48.114;11.670;2022-09-02T11:10:35;23.00;92.70
19261;DHT22;9764;48.114;11.670;2022-09-02T11:13:08;23.10;92.80
19261;DHT22;9764;48.114;11.670;2022-09-02T11:15:44;23.10;92.70
19261;DHT22;9764;48.114;11.670;2022-09-02T11:18:19;23.10;92.70
19261;DHT22;9764;48.114;11.670;2022-09-02T11:21:04;23.10;92.70
19261;DHT22;9764;48.114;11.670;2022-09-02T11:23:37;23.10;92.70
19261;DHT22;9764;48.114;11.670;2022-09-02T11:26:12;23.20;92.50
19261;DHT22;9764;48.114;11.670;2022-09-02T11:28:47;23.10;92.40
19261;DHT22;9764;48.114;11.670;2022-09-02T11:31:25;23.10;92.50
19261;DHT22;9764;48.114;11.670;2022-09-02T11:34:03;23.20;92.50
19261;DHT22;9764;48.114;11.670;2022-09-02T11:36:38;23.20;92.50
19261;DHT22;9764;48.114;11.670;2022-09-02T11:39:10;23.20;92.70
19261;DHT22;9764;48.114;11.670;2022-09-02T11:42:18;23.20;92.70
19261;DHT22;9764;48.114;11.670;2022-09-02T11:45:08;23.20;92.70
19261;DHT22;9764;48.114;11.670;2022-09-02T11:47:57;23.30;92.80
19261;DHT22;9764;48.114;11.670;2022-09-02T11:50:44;23.30;92.70
19261;DHT22;9764;48.114;11.670;2022-09-02T11:53:24;23.30;92.60
19261;DHT22;9764;48.114;11.670;2022-09-02T11:55:57;23.30;92.30
19261;DHT22;9764;48.114;11.670;2022-09-02T11:58:36;23.30;92.30
19261;DHT22;9764;48.114;11.670;2022-09-02T12:01:17;23.30;92.30
19261;DHT22;9764;48.114;11.670;2022-09-02T12:03:55;23.30;92.50
19261;DHT22;9764;48.114;11.670;2022-09-02T12:09:57;23.30;92.40
19261;DHT22;9764;48.114;11.670;2022-09-02T12:13:01;23.30;92.50
19261;DHT22;9764;48.114;11.670;2022-09-02T12:15:34;23.40;92.40
19261;DHT22;9764;48.114;11.670;2022-09-02T12:18:11;23.40;92.50
19261;DHT22;9764;48.114;11.670;2022-09-02T12:21:08;23.40;92.60
19261;DHT22;9764;48.114;11.670;2022-09-02T12:24:19;23.40;92.50
19261;DHT22;9764;48.114;11.670;2022-09-02T12:27:17;23.40;92.40
19261;DHT22;9764;48.114;11.670;2022-09-02T12:29:46;23.40;92.60
19261;DHT22;9764;48.114;11.670;2022-09-02T12:35:49;23.50;92.60
19261;DHT22;9764;48.114;11.670;2022-09-02T12:38:27;23.50;92.60
19261;DHT22;9764;48.114;11.670;2022-09-02T12:41:19;23.50;92.50
19261;DHT22;9764;48.114;11.670;2022-09-02T12:43:56;23.50;92.10
19261;DHT22;9764;48.114;11.670;2022-09-02T12:46:46;23.50;91.40
19261;DHT22;9764;48.114;11.670;2022-09-02T12:49:36;23.50;90.10
19261;DHT22;9764;48.114;11.670;2022-09-02T12:52:09;23.50;89.70
19261;DHT22;9764;48.114;11.670;2022-09-02T12:54:42;23.50;90.80
19261;DHT22;9764;48.114;11.670;2022-09-02T12:57:15;23.50;90.90
19261;DHT22;9764;48.114;11.670;2022-09-02T12:59:46;23.50;91.00
19261;DHT22;9764;48.114;11.670;2022-09-02T13:02:28;23.40;90.90
19261;DHT22;9764;48.114;11.670;2022-09-02T13:05:16;23.50;91.10
19261;DHT22;9764;48.114;11.670;2022-09-02T13:08:06;23.50;90.20
19261;DHT22;9764;48.114;11.670;2022-09-02T13:11:01;23.50;90.50
19261;DHT22;9764;48.114;11.670;2022-09-02T13:17:03;23.50;90.70
19261;DHT22;9764;48.114;11.670;2022-09-02T13:23:12;23.60;90.10
19261;DHT22;9764;48.114;11.670;2022-09-02T13:26:08;23.70;90.50
19261;DHT22;9764;48.114;11.670;2022-09-02T13:29:16;23.60;90.70
19261;DHT22;9764;48.114;11.670;2022-09-02T13:32:00;23.60;90.20
19261;DHT22;9764;48.114;11.670;2022-09-02T13:34:31;23.60;90.50
19261;DHT22;9764;48.114;11.670;2022-09-02T13:36:59;23.60;90.20
19261;DHT22;9764;48.114;11.670;2022-09-02T13:39:28;23.70;90.30
19261;DHT22;9764;48.114;11.670;2022-09-02T13:42:13;23.70;90.50
19261;DHT22;9764;48.114;11.670;2022-09-02T13:44:44;23.70;90.10
19261;DHT22;9764;48.114;11.670;2022-09-02T13:47:16;23.80;89.30
19261;DHT22;9764;48.114;11.670;2022-09-02T13:49:48;23.80;89.30
19261;DHT22;9764;48.114;11.670;2022-09-02T13:52:22;23.80;89.90
19261;DHT22;9764;48.114;11.670;2022-09-02T13:55:13;23.80;89.70
19261;DHT22;9764;48.114;11.670;2022-09-02T13:57:45;23.90;90.40
19261;DHT22;9764;48.114;11.670;2022-09-02T14:00:26;23.90;90.30
19261;DHT22;9764;48.114;11.670;2022-09-02T14:03:00;23.90;90.50
19261;DHT22;9764;48.114;11.670;2022-09-02T14:05:29;23.90;90.70
19261;DHT22;9764;48.114;11.670;2022-09-02T14:08:00;23.90;90.60
19261;DHT22;9764;48.114;11.670;2022-09-02T14:10:30;23.90;90.80
19261;DHT22;9764;48.114;11.670;2022-09-02T14:13:01;23.90;90.90
19261;DHT22;9764;48.114;11.670;2022-09-02T14:15:31;23.90;90.80
19261;DHT22;9764;48.114;11.670;2022-09-02T14:18:10;23.90;90.60
19261;DHT22;9764;48.114;11.670;2022-09-02T14:20:58;24.00;91.00
19261;DHT22;9764;48.114;11.670;2022-09-02T14:23:30;23.90;90.80
19261;DHT22;9764;48.114;11.670;2022-09-02T14:26:01;23.90;90.80
19261;DHT22;9764;48.114;11.670;2022-09-02T14:28:32;23.90;90.90
19261;DHT22;9764;48.114;11.670;2022-09-02T14:31:04;23.90;90.20
19261;DHT22;9764;48.114;11.670;2022-09-02T14:33:39;24.00;89.50
19261;DHT22;9764;48.114;11.670;2022-09-02T14:36:20;24.00;90.00
19261;DHT22;9764;48.114;11.670;2022-09-02T14:39:11;24.00;90.20
19261;DHT22;9764;48.114;11.670;2022-09-02T14:41:46;24.00;90.50
19261;DHT22;9764;48.114;11.670;2022-09-02T14:44:21;24.00;90.40
19261;DHT22;9764;48.114;11.670;2022-09-02T14:46:52;24.00;90.40
19261;DHT22;9764;48.114;11.670;2022-09-02T14:49:26;24.00;90.70
19261;DHT22;9764;48.114;11.670;2022-09-02T14:51:59;24.00;90.90
19261;DHT22;9764;48.114;11.670;2022-09-02T14:54:37;24.00;90.70
19261;DHT22;9764;48.114;11.670;2022-09-02T14:57:19;24.00;90.90
19261;DHT22;9764;48.114;11.670;2022-09-02T14:59:49;24.00;90.40
19261;DHT22;9764;48.114;11.670;2022-09-02T15:02:23;24.10;90.70
19261;DHT22;9764;48.114;11.670;2022-09-02T15:04:54;24.10;90.20
19261;DHT22;9764;48.114;11.670;2022-09-02T15:07:24;24.10;89.50
19261;DHT22;9764;48.114;11.670;2022-09-02T15:09:52;24.10;90.20
19261;DHT22;9764;48.114;11.670;2022-09-02T15:12:23;24.10;90.70
19261;DHT22;9764;48.114;11.670;2022-09-02T15:14:56;24.10;91.00
19261;DHT22;9764;48.114;11.670;2022-09-02T15:17:25;24.10;90.10
19261;DHT22;9764;48.114;11.670;2022-09-02T15:19:55;24.10;90.40
19261;DHT22;9764;48.114;11.670;2022-09-02T15:22:24;24.10;90.70
19261;DHT22;9764;48.114;11.670;2022-09-02T15:24:53;24.10;90.80
19261;DHT22;9764;48.114;11.670;2022-09-02T15:27:23;24.10;90.90
19261;DHT22;9764;48.114;11.670;2022-09-02T15:29:52;24.10;90.80
19261;DHT22;9764;48.114;11.670;2022-09-02T15:32:24;24.10;90.80
19261;DHT22;9764;48.114;11.670;2022-09-02T15:34:54;24.10;90.70
19261;DHT22;9764;48.114;11.670;2022-09-02T15:37:24;24.10;90.80
19261;DHT22;9764;48.114;11.670;2022-09-02T15:39:53;24.10;90.80
19261;DHT22;9764;48.114;11.670;2022-09-02T15:42:21;24.10;91.00
19261;DHT22;9764;48.114;11.670;2022-09-02T15:44:50;24.10;91.00
19261;DHT22;9764;48.114;11.670;2022-09-02T15:47:19;24.10;90.90
19261;DHT22;9764;48.114;11.670;2022-09-02T15:49:48;24.10;90.80
19261;DHT22;9764;48.114;11.670;2022-09-02T15:52:17;24.10;90.70
19261;DHT22;9764;48.114;11.670;2022-09-02T15:54:45;24.10;90.70
19261;DHT22;9764;48.114;11.670;2022-09-02T15:57:14;24.10;90.60
19261;DHT22;9764;48.114;11.670;2022-09-02T15:59:42;24.10;90.70
19261;DHT22;9764;48.114;11.670;2022-09-02T16:02:11;24.10;90.90
19261;DHT22;9764;48.114;11.670;2022-09-02T16:04:39;24.10;90.90
19261;DHT22;9764;48.114;11.670;2022-09-02T16:07:07;24.10;90.80
19261;DHT22;9764;48.114;11.670;2022-09-02T16:09:44;24.10;90.60
19261;DHT22;9764;48.114;11.670;2022-09-02T16:12:12;24.10;90.80
19261;DHT22;9764;48.114;11.670;2022-09-02T16:14:40;24.10;90.90
19261;DHT22;9764;48.114;11.670;2022-09-02T16:17:09;24.10;90.90
19261;DHT22;9764;48.114;11.670;2022-09-02T16:19:37;24.10;90.90
19261;DHT22;9764;48.114;11.670;2022-09-02T16:22:05;24.00;90.90
19261;DHT22;9764;48.114;11.670;2022-09-02T16:24:33;24.00;90.90